Time;durP1;ratioP1;P1;durP2;ratioP2;P2;SDS_P1;SDS_P2;PMS_P1;PMS_P2;Temp;Humidity;BMP_temperature;BMP_pressure;BME280_temperature;BME280_humidity;BME280_pressure;Samples;Min_cycle;Max_cycle;Signal;HPM_P1;HPM_P2
2023/01/07 00:02:01;;;;;;;;;0.00;0.00;;;;;;;;5188891;28;11438;-78
2023/01/07 00:04:33;;;;;;;;;1.00;1.00;;;;;;;;5172490;28;11384;-78
2023/01/07 00:07:04;;;;;;;;;5.50;1.00;;;;;;;;5172628;28;11401;-78
2023/01/07 00:09:35;;;;;;;;;1.00;1.00;;;;;;;;5188736;28;11378;-77
2023/01/07 00:12:06;;;;;;;;;2.00;0.50;;;;;;;;5156120;28;12161;-76
2023/01/07 00:14:37;;;;;;;;;0.00;0.00;;;;;;;;5171813;28;11385;-77
2023/01/07 00:17:08;;;;;;;;;1.00;1.00;;;;;;;;5189059;28;11386;-77
2023/01/07 00:19:39;;;;;;;;;1.00;1.00;;;;;;;;5188823;28;11392;-76
2023/01/07 00:22:10;;;;;;;;;0.00;0.00;;;;;;;;5206246;28;11440;-76
2023/01/07 00:24:42;;;;;;;;;0.00;0.00;;;;;;;;5173380;28;11395;-76
2023/01/07 00:27:13;;;;;;;;;0.00;0.00;;;;;;;;5172165;28;11370;-76
2023/01/07 00:29:44;;;;;;;;;1.00;1.00;;;;;;;;5188059;28;11392;-76
2023/01/07 00:32:15;;;;;;;;;0.25;0.25;;;;;;;;5188306;28;8884;-76
2023/01/07 00:34:46;;;;;;;;;3.00;3.00;;;;;;;;5171782;28;11469;-76
2023/01/07 00:40:07;;;;;;;;;4.50;4.50;;;;;;;;5204638;28;8836;-79
2023/01/07 00:43:00;;;;;;;;;0.00;0.00;;;;;;;;5175007;28;11466;-77
2023/01/07 00:45:32;;;;;;;;;1.00;1.00;;;;;;;;5156587;28;12040;-76
2023/01/07 00:48:03;;;;;;;;;0.50;0.50;;;;;;;;5172117;28;11393;-76
2023/01/07 00:50:53;;;;;;;;;0.00;0.00;;;;;;;;5174593;28;11495;-77
2023/01/07 00:53:28;;;;;;;;;0.00;0.00;;;;;;;;5155258;28;11405;-76
2023/01/07 00:55:59;;;;;;;;;0.75;0.75;;;;;;;;5187480;28;11391;-77
2023/01/07 00:58:31;;;;;;;;;1.00;1.00;;;;;;;;5154874;28;11403;-79
2023/01/07 01:01:03;;;;;;;;;0.00;0.00;;;;;;;;5188531;28;11416;-75
2023/01/07 01:03:53;;;;;;;;;3.50;3.50;;;;;;;;5174082;28;11470;-75
2023/01/07 01:06:24;;;;;;;;;1.00;1.00;;;;;;;;5205721;28;12109;-76
2023/01/07 01:08:55;;;;;;;;;0.50;0.50;;;;;;;;5205179;28;11407;-76
2023/01/07 01:11:26;;;;;;;;;0.00;0.00;;;;;;;;5171521;28;11382;-77
2023/01/07 01:13:58;;;;;;;;;2.00;2.00;;;;;;;;5204529;28;11380;-76
2023/01/07 01:16:47;;;;;;;;;0.00;0.00;;;;;;;;5190108;28;11408;-74
2023/01/07 01:19:18;;;;;;;;;0.00;0.00;;;;;;;;5188039;28;11368;-74
2023/01/07 01:21:49;;;;;;;;;1.00;1.00;;;;;;;;5171628;28;11503;-74
2023/01/07 01:24:20;;;;;;;;;0.00;0.00;;;;;;;;5187606;28;11408;-74
2023/01/07 01:26:51;;;;;;;;;0.00;0.00;;;;;;;;5187482;28;8805;-74
2023/01/07 01:29:22;;;;;;;;;0.00;0.00;;;;;;;;5155455;28;12063;-75
2023/01/07 01:31:55;;;;;;;;;0.00;0.00;;;;;;;;5171238;28;11476;-75
2023/01/07 01:34:26;;;;;;;;;1.00;1.00;;;;;;;;5204104;28;11307;-75
2023/01/07 01:36:58;;;;;;;;;0.00;0.00;;;;;;;;5196840;28;11411;-75
2023/01/07 01:39:29;;;;;;;;;0.00;0.00;;;;;;;;5200302;28;11335;-75
2023/01/07 01:42:00;;;;;;;;;0.00;0.00;;;;;;;;5199890;28;11387;-74
2023/01/07 01:44:35;;;;;;;;;0.00;0.00;;;;;;;;5191100;28;11397;-75
2023/01/07 01:47:13;;;;;;;;;0.00;0.00;;;;;;;;5171987;28;11380;-76
2023/01/07 01:49:47;;;;;;;;;7.50;7.50;;;;;;;;5188801;28;11443;-75
2023/01/07 01:52:21;;;;;;;;;2.00;2.00;;;;;;;;5187622;28;11400;-76
2023/01/07 01:54:55;;;;;;;;;0.00;0.00;;;;;;;;5205392;28;11425;-74
2023/01/07 01:57:28;;;;;;;;;0.00;0.00;;;;;;;;5171500;28;11399;-75
2023/01/07 02:00:01;;;;;;;;;0.00;0.00;;;;;;;;5205348;28;11381;-76
2023/01/07 02:02:45;;;;;;;;;1.00;1.00;;;;;;;;5187729;28;11396;-77
2023/01/07 02:05:17;;;;;;;;;0.75;0.75;;;;;;;;5172642;28;11403;-76
2023/01/07 02:07:49;;;;;;;;;4.00;4.00;;;;;;;;5205266;28;11381;-75
2023/01/07 02:10:23;;;;;;;;;0.75;0.75;;;;;;;;5202132;28;11411;-75
2023/01/07 02:13:02;;;;;;;;;0.00;0.00;;;;;;;;5175374;28;11398;-76
2023/01/07 02:15:52;;;;;;;;;1.00;1.00;;;;;;;;5205894;28;11388;-77
2023/01/07 02:18:26;;;;;;;;;3.75;3.75;;;;;;;;5159100;28;11461;-77
2023/01/07 02:20:58;;;;;;;;;0.00;0.00;;;;;;;;5191344;28;12206;-76
2023/01/07 02:23:47;;;;;;;;;6.00;6.00;;;;;;;;5191595;28;11408;-77
2023/01/07 02:26:28;;;;;;;;;3.00;3.00;;;;;;;;5191452;28;11385;-78
2023/01/07 02:29:18;;;;;;;;;0.50;0.50;;;;;;;;5158493;28;11403;-77
2023/01/07 02:32:02;;;;;;;;;0.00;0.00;;;;;;;;5190668;28;11413;-77
2023/01/07 02:34:33;;;;;;;;;2.75;2.25;;;;;;;;5159007;28;12118;-77
2023/01/07 02:37:13;;;;;;;;;0.00;0.00;;;;;;;;5194211;28;11398;-76
2023/01/07 02:39:50;;;;;;;;;0.00;0.00;;;;;;;;5184229;28;11466;-76
2023/01/07 02:42:24;;;;;;;;;0.00;0.00;;;;;;;;5179468;28;12247;-75
2023/01/07 02:45:15;;;;;;;;;3.25;3.25;;;;;;;;5174349;28;11393;-78
2023/01/07 02:47:51;;;;;;;;;1.50;1.50;;;;;;;;5174295;28;11416;-78
2023/01/07 02:50:23;;;;;;;;;1.00;1.00;;;;;;;;5174406;28;11512;-77
2023/01/07 02:52:54;;;;;;;;;1.00;1.00;;;;;;;;5190576;28;11402;-79
2023/01/07 02:55:35;;;;;;;;;0.00;0.00;;;;;;;;5190249;28;11383;-79
2023/01/07 02:58:07;;;;;;;;;1.00;1.00;;;;;;;;5190778;28;11364;-77
2023/01/07 03:00:54;;;;;;;;;2.00;2.00;;;;;;;;5190757;28;11381;-76
2023/01/07 03:03:28;;;;;;;;;2.00;2.00;;;;;;;;5190766;28;11448;-77
2023/01/07 03:06:23;;;;;;;;;4.75;4.75;;;;;;;;5207189;28;11379;-76
2023/01/07 03:09:22;;;;;;;;;5.00;5.00;;;;;;;;5176451;28;11381;-77
2023/01/07 03:11:59;;;;;;;;;1.50;1.50;;;;;;;;5207262;28;11390;-77
2023/01/07 03:14:44;;;;;;;;;3.25;3.25;;;;;;;;5190286;28;11387;-76
2023/01/07 03:17:38;;;;;;;;;3.25;3.00;;;;;;;;5189350;28;11444;-76
2023/01/07 03:20:11;;;;;;;;;6.50;3.25;;;;;;;;5189825;28;11426;-76
2023/01/07 03:22:44;;;;;;;;;9.50;8.00;;;;;;;;5173631;28;11406;-75
2023/01/07 03:25:16;;;;;;;;;8.00;8.00;;;;;;;;5189289;28;11391;-76
2023/01/07 03:28:06;;;;;;;;;4.50;4.50;;;;;;;;5176184;28;11393;-77
2023/01/07 03:30:37;;;;;;;;;9.00;8.00;;;;;;;;5189678;28;11447;-77
2023/01/07 03:33:09;;;;;;;;;1.00;1.00;;;;;;;;5173683;28;11472;-75
2023/01/07 03:35:42;;;;;;;;;2.50;2.00;;;;;;;;5189474;28;11405;-76
2023/01/07 03:38:14;;;;;;;;;1.50;1.50;;;;;;;;5190025;28;12175;-76
2023/01/07 03:40:46;;;;;;;;;4.50;4.50;;;;;;;;5189981;28;11395;-76
2023/01/07 03:43:21;;;;;;;;;1.00;1.00;;;;;;;;5158146;28;11535;-76
2023/01/07 03:45:53;;;;;;;;;7.25;7.25;;;;;;;;5173932;28;11406;-77
2023/01/07 03:48:24;;;;;;;;;3.50;3.50;;;;;;;;5189375;28;11450;-77
2023/01/07 03:50:56;;;;;;;;;2.50;2.50;;;;;;;;5189426;28;11397;-79
2023/01/07 03:53:27;;;;;;;;;1.00;1.00;;;;;;;;5188492;28;11395;-78
2023/01/07 03:55:58;;;;;;;;;4.50;4.50;;;;;;;;5205742;28;11393;-78
2023/01/07 03:58:29;;;;;;;;;0.50;0.50;;;;;;;;5172896;28;9490;-84
2023/01/07 04:05:23;;;;;;;;;3.75;3.75;;;;;;;;5206644;28;11334;-78
2023/01/07 04:07:55;;;;;;;;;5.50;4.50;;;;;;;;5173395;28;11587;-82
2023/01/07 04:10:29;;;;;;;;;4.50;4.50;;;;;;;;5173896;28;11394;-83
2023/01/07 04:13:00;;;;;;;;;2.50;2.50;;;;;;;;5189630;28;11385;-80
2023/01/07 04:15:31;;;;;;;;;8.25;8.25;;;;;;;;5173323;28;11565;-82
2023/01/07 04:18:21;;;;;;;;;11.75;11.50;;;;;;;;5189072;28;11422;-84
2023/01/07 04:20:52;;;;;;;;;2.00;2.00;;;;;;;;5189245;28;11426;-80
2023/01/07 04:23:23;;;;;;;;;8.00;8.00;;;;;;;;5189007;28;11388;-80
2023/01/07 04:25:56;;;;;;;;;0.75;0.75;;;;;;;;5188791;28;11391;-81
2023/01/07 04:28:29;;;;;;;;;6.25;6.25;;;;;;;;5189272;28;11386;-81
2023/01/07 04:31:01;;;;;;;;;0.75;0.75;;;;;;;;5206166;28;11467;-80
2023/01/07 04:33:34;;;;;;;;;7.50;7.50;;;;;;;;5188546;28;11377;-80
2023/01/07 04:36:06;;;;;;;;;6.00;6.00;;;;;;;;5172416;28;12090;-79
2023/01/07 04:38:56;;;;;;;;;12.00;11.25;;;;;;;;5191482;28;11413;-81
2023/01/07 04:41:27;;;;;;;;;4.00;4.00;;;;;;;;5173048;28;11491;-81
2023/01/07 04:43:58;;;;;;;;;14.75;14.75;;;;;;;;5188942;28;11397;-78
2023/01/07 04:46:31;;;;;;;;;1.00;1.00;;;;;;;;5188478;28;11566;-81
2023/01/07 04:49:20;;;;;;;;;5.00;5.00;;;;;;;;5174847;28;12252;-78
2023/01/07 04:51:52;;;;;;;;;5.50;5.50;;;;;;;;5211845;28;11409;-81
2023/01/07 04:54:23;;;;;;;;;5.50;5.50;;;;;;;;5173553;28;12288;-78
2023/01/07 04:56:56;;;;;;;;;2.00;2.00;;;;;;;;5195305;28;12159;-81
2023/01/07 04:59:27;;;;;;;;;3.00;3.00;;;;;;;;5212447;28;11382;-78
2023/01/07 05:01:58;;;;;;;;;2.50;2.50;;;;;;;;5197061;28;11430;-80
2023/01/07 05:04:30;;;;;;;;;4.25;4.25;;;;;;;;5194546;28;11389;-77
2023/01/07 05:07:19;;;;;;;;;3.25;3.25;;;;;;;;5188465;28;11403;-78
2023/01/07 05:09:52;;;;;;;;;11.50;11.50;;;;;;;;5209323;28;12165;-75
2023/01/07 05:12:43;;;;;;;;;8.50;8.50;;;;;;;;5204848;28;11459;-76
2023/01/07 05:15:16;;;;;;;;;8.75;7.25;;;;;;;;5156222;28;11443;-79
2023/01/07 05:17:48;;;;;;;;;1.50;0.25;;;;;;;;5171536;28;11457;-80
2023/01/07 05:20:19;;;;;;;;;6.00;6.00;;;;;;;;5171390;28;11393;-78
2023/01/07 05:22:51;;;;;;;;;15.75;15.75;;;;;;;;5155182;28;11425;-81
2023/01/07 05:25:23;;;;;;;;;11.75;11.75;;;;;;;;5171361;28;11459;-80
2023/01/07 05:27:55;;;;;;;;;10.50;7.50;;;;;;;;5188957;28;11432;-75
2023/01/07 05:30:28;;;;;;;;;6.00;6.00;;;;;;;;5171276;28;11419;-74
2023/01/07 05:33:00;;;;;;;;;10.00;10.00;;;;;;;;5187908;28;11419;-76
2023/01/07 05:35:32;;;;;;;;;8.25;7.75;;;;;;;;5171085;28;11517;-73
2023/01/07 05:38:04;;;;;;;;;20.00;19.75;;;;;;;;5154907;28;11471;-74
2023/01/07 05:40:36;;;;;;;;;1.00;1.00;;;;;;;;5171626;28;11431;-74
2023/01/07 05:43:07;;;;;;;;;6.00;6.00;;;;;;;;5204311;28;11404;-74
2023/01/07 05:50:09;;;;;;;;;9.25;9.25;;;;;;;;5223132;28;11413;-78
2023/01/07 05:52:41;;;;;;;;;4.50;4.50;;;;;;;;5192038;28;11389;-78
2023/01/07 05:55:12;;;;;;;;;6.00;6.00;;;;;;;;5175493;28;11423;-76
2023/01/07 05:57:43;;;;;;;;;6.00;6.00;;;;;;;;5191786;28;11404;-82
2023/01/07 06:00:15;;;;;;;;;4.75;4.75;;;;;;;;5191397;28;11403;-77
2023/01/07 06:02:46;;;;;;;;;25.25;23.25;;;;;;;;5175377;28;11408;-73
2023/01/07 06:05:17;;;;;;;;;13.50;13.00;;;;;;;;5191521;28;12216;-77
2023/01/07 06:07:49;;;;;;;;;11.25;9.25;;;;;;;;5191376;28;11445;-78
2023/01/07 06:10:20;;;;;;;;;18.75;18.75;;;;;;;;5191154;28;11414;-74
2023/01/07 06:12:51;;;;;;;;;13.50;13.50;;;;;;;;5176040;28;11457;-81
2023/01/07 06:15:23;;;;;;;;;9.50;9.50;;;;;;;;5175225;28;11638;-72
2023/01/07 06:17:54;;;;;;;;;0.25;0.25;;;;;;;;5207638;28;11404;-75
2023/01/07 06:20:25;;;;;;;;;12.50;12.50;;;;;;;;5208515;28;11462;-78
2023/01/07 06:22:56;;;;;;;;;5.25;5.25;;;;;;;;5174766;28;11471;-74
2023/01/07 06:25:28;;;;;;;;;18.25;18.25;;;;;;;;5174529;28;11373;-74
2023/01/07 06:27:59;;;;;;;;;21.25;20.00;;;;;;;;5174256;28;11496;-73
2023/01/07 06:30:30;;;;;;;;;15.75;15.75;;;;;;;;5208032;28;11579;-77
2023/01/07 06:33:01;;;;;;;;;25.75;25.75;;;;;;;;5191078;28;11432;-77
2023/01/07 06:35:32;;;;;;;;;21.00;20.50;;;;;;;;5190576;28;11454;-76
2023/01/07 06:38:22;;;;;;;;;11.75;11.75;;;;;;;;5191335;28;11442;-76
2023/01/07 06:40:53;;;;;;;;;11.50;11.50;;;;;;;;5208595;28;11446;-74
2023/01/07 06:43:25;;;;;;;;;2.00;2.00;;;;;;;;5174118;28;11520;-76
2023/01/07 06:45:56;;;;;;;;;9.75;9.75;;;;;;;;5174055;28;11400;-77
2023/01/07 06:48:28;;;;;;;;;9.25;8.50;;;;;;;;5174308;28;11393;-73
2023/01/07 06:50:59;;;;;;;;;11.75;11.75;;;;;;;;5174194;28;11420;-73
2023/01/07 06:53:30;;;;;;;;;3.75;3.75;;;;;;;;5191195;28;11393;-73
2023/01/07 06:56:19;;;;;;;;;3.50;3.50;;;;;;;;5189189;28;11518;-74
2023/01/07 07:03:20;;;;;;;;;6.75;6.75;;;;;;;;5187648;28;11401;-74
2023/01/07 07:05:52;;;;;;;;;4.00;4.00;;;;;;;;5186518;28;11332;-76
2023/01/07 07:08:23;;;;;;;;;3.50;3.50;;;;;;;;5185984;28;11360;-73
2023/01/07 07:10:54;;;;;;;;;6.25;5.50;;;;;;;;5169692;28;11418;-75
2023/01/07 07:13:26;;;;;;;;;3.50;2.50;;;;;;;;5170127;28;11370;-75
2023/01/07 07:15:57;;;;;;;;;11.00;11.00;;;;;;;;5185995;28;8787;-73
2023/01/07 07:18:29;;;;;;;;;8.25;8.25;;;;;;;;5185600;28;11361;-74
2023/01/07 07:21:00;;;;;;;;;6.00;6.00;;;;;;;;5154469;28;12024;-72
2023/01/07 07:23:49;;;;;;;;;3.75;3.75;;;;;;;;5186370;28;11472;-77
2023/01/07 07:26:20;;;;;;;;;5.00;5.00;;;;;;;;5169525;28;11376;-73
2023/01/07 07:28:51;;;;;;;;;2.75;2.75;;;;;;;;5169285;28;11355;-75
2023/01/07 07:31:22;;;;;;;;;6.00;6.00;;;;;;;;5169654;28;11423;-71
2023/01/07 07:33:54;;;;;;;;;33.25;32.25;;;;;;;;5186061;28;11402;-75
2023/01/07 07:36:25;;;;;;;;;4.50;4.50;;;;;;;;5169529;28;11470;-75
2023/01/07 07:39:15;;;;;;;;;1.50;1.50;;;;;;;;5187223;28;11354;-76
2023/01/07 07:41:46;;;;;;;;;8.50;8.50;;;;;;;;5169044;28;11190;-73
2023/01/07 07:44:35;;;;;;;;;0.00;0.00;;;;;;;;5169460;28;11342;-74
2023/01/07 07:47:06;;;;;;;;;3.25;2.50;;;;;;;;5185833;28;12003;-73
2023/01/07 07:49:38;;;;;;;;;4.00;4.00;;;;;;;;5186599;28;11028;-74
2023/01/07 07:52:09;;;;;;;;;4.00;4.00;;;;;;;;5185397;28;10768;-74
2023/01/07 08:03:27;;;;;;;;;6.50;6.25;;;;;;;;5197321;28;10965;-75
2023/01/07 08:06:17;;;;;;;;;12.75;10.00;;;;;;;;5198279;28;10846;-77
2023/01/07 08:08:48;;;;;;;;;9.50;8.00;;;;;;;;5178659;28;11365;-75
2023/01/07 08:11:19;;;;;;;;;19.00;19.00;;;;;;;;5169939;28;10865;-73
2023/01/07 08:13:49;;;;;;;;;12.75;12.00;;;;;;;;5185710;28;11555;-74
2023/01/07 08:16:20;;;;;;;;;4.00;4.00;;;;;;;;5185995;28;8839;-81
2023/01/07 08:18:51;;;;;;;;;10.00;9.00;;;;;;;;5170800;28;8772;-77
2023/01/07 08:21:22;;;;;;;;;7.00;7.00;;;;;;;;5189047;28;11293;-74
2023/01/07 08:28:23;;;;;;;;;13.50;13.50;;;;;;;;5206636;28;11088;-73
2023/01/07 08:30:54;;;;;;;;;5.50;5.50;;;;;;;;5184899;28;11769;-75
2023/01/07 08:33:25;;;;;;;;;9.75;9.50;;;;;;;;5168343;28;8772;-76
2023/01/07 08:35:56;;;;;;;;;10.25;10.00;;;;;;;;5168235;28;10884;-76
2023/01/07 08:38:48;;;;;;;;;11.50;11.50;;;;;;;;5198795;28;8791;-73
2023/01/07 08:41:20;;;;;;;;;0.75;0.75;;;;;;;;5168148;28;10587;-74
2023/01/07 08:43:52;;;;;;;;;4.75;4.75;;;;;;;;5200936;28;10694;-77
2023/01/07 08:46:23;;;;;;;;;6.75;6.75;;;;;;;;5184624;28;10683;-74
2023/01/07 08:48:54;;;;;;;;;6.00;6.00;;;;;;;;5168365;28;10414;-76
2023/01/07 08:51:25;;;;;;;;;5.50;5.50;;;;;;;;5185017;28;10404;-77
2023/01/07 08:53:57;;;;;;;;;14.00;14.00;;;;;;;;5185899;28;10520;-76
2023/01/07 08:56:28;;;;;;;;;4.75;4.75;;;;;;;;5154168;28;8783;-77
2023/01/07 08:59:17;;;;;;;;;9.25;8.75;;;;;;;;5204416;28;11204;-78
2023/01/07 09:01:49;;;;;;;;;9.00;8.00;;;;;;;;5176142;28;10970;-76
2023/01/07 09:04:20;;;;;;;;;8.00;8.00;;;;;;;;5169209;28;10575;-79
2023/01/07 09:06:52;;;;;;;;;9.00;8.00;;;;;;;;5169257;28;10665;-79
2023/01/07 09:09:23;;;;;;;;;6.75;6.75;;;;;;;;5184323;28;10657;-76
2023/01/07 09:11:54;;;;;;;;;6.75;6.75;;;;;;;;5167724;28;10836;-78
2023/01/07 09:14:25;;;;;;;;;18.75;15.75;;;;;;;;5184548;28;10665;-78
2023/01/07 09:16:56;;;;;;;;;8.50;8.25;;;;;;;;5168880;28;11542;-78
2023/01/07 09:19:27;;;;;;;;;1.00;1.00;;;;;;;;5184096;28;11324;-77
2023/01/07 09:21:59;;;;;;;;;0.75;0.25;;;;;;;;5184506;28;10171;-79
2023/01/07 09:24:30;;;;;;;;;3.00;3.00;;;;;;;;5167436;28;10120;-75
2023/01/07 09:27:21;;;;;;;;;6.00;3.25;;;;;;;;5183992;28;11007;-73
2023/01/07 09:29:53;;;;;;;;;0.75;0.00;;;;;;;;5167341;28;10358;-77
2023/01/07 09:32:24;;;;;;;;;6.50;6.50;;;;;;;;5183755;28;10300;-79
2023/01/07 09:34:59;;;;;;;;;14.75;13.50;;;;;;;;5183636;28;10306;-79
2023/01/07 09:37:30;;;;;;;;;4.00;4.00;;;;;;;;5167427;28;10509;-75
2023/01/07 09:40:01;;;;;;;;;13.75;13.25;;;;;;;;5183533;28;10185;-76
2023/01/07 09:42:51;;;;;;;;;9.00;9.00;;;;;;;;5183515;28;10613;-75
2023/01/07 09:45:33;;;;;;;;;30.00;27.75;;;;;;;;5183419;28;10558;-75
2023/01/07 09:48:10;;;;;;;;;6.50;6.50;;;;;;;;5183897;28;10715;-83
2023/01/07 09:50:41;;;;;;;;;12.75;12.75;;;;;;;;5152072;28;10409;-77
2023/01/07 09:53:14;;;;;;;;;16.50;16.25;;;;;;;;5183265;28;11240;-76
2023/01/07 09:55:46;;;;;;;;;13.00;13.00;;;;;;;;5183871;28;11691;-79
2023/01/07 09:58:36;;;;;;;;;18.50;18.50;;;;;;;;5184423;28;10840;-78
2023/01/07 10:01:07;;;;;;;;;15.25;15.00;;;;;;;;5170206;28;10380;-75
2023/01/07 10:03:46;;;;;;;;;15.50;15.00;;;;;;;;5182993;28;10047;-78
2023/01/07 10:06:17;;;;;;;;;11.50;11.50;;;;;;;;5167924;28;10330;-78
2023/01/07 10:09:07;;;;;;;;;12.50;12.50;;;;;;;;5167841;28;10297;-78
2023/01/07 10:12:00;;;;;;;;;12.50;12.50;;;;;;;;5185371;28;10190;-80
2023/01/07 10:15:04;;;;;;;;;6.25;6.25;;;;;;;;5154716;28;10400;-77
2023/01/07 10:17:44;;;;;;;;;5.50;5.50;;;;;;;;5183682;28;9992;-71
2023/01/07 10:20:25;;;;;;;;;11.50;11.00;;;;;;;;5182708;28;9843;-75
2023/01/07 10:23:02;;;;;;;;;8.25;8.25;;;;;;;;5183185;28;10158;-75
2023/01/07 10:25:39;;;;;;;;;6.50;6.50;;;;;;;;5184615;28;10947;-72
2023/01/07 10:28:21;;;;;;;;;3.75;3.75;;;;;;;;5166820;28;10022;-73
2023/01/07 10:30:52;;;;;;;;;6.75;6.50;;;;;;;;5169571;28;10900;-74
2023/01/07 10:33:25;;;;;;;;;17.25;16.25;;;;;;;;5187151;28;10286;-72
2023/01/07 10:36:30;;;;;;;;;26.00;25.00;;;;;;;;5187876;28;12169;-74
2023/01/07 10:39:10;;;;;;;;;11.00;11.00;;;;;;;;5186724;28;10744;-74
2023/01/07 10:41:40;;;;;;;;;3.00;3.00;;;;;;;;5187111;28;10272;-75
2023/01/07 10:44:33;;;;;;;;;5.00;5.00;;;;;;;;5187697;28;10055;-73
2023/01/07 10:47:04;;;;;;;;;3.00;3.00;;;;;;;;5171077;28;8806;-73
2023/01/07 10:50:12;;;;;;;;;3.25;3.25;;;;;;;;5186754;28;10140;-74
2023/01/07 10:52:58;;;;;;;;;5.00;5.00;;;;;;;;5170589;28;9861;-73
2023/01/07 10:55:43;;;;;;;;;5.75;5.75;;;;;;;;5186345;28;10790;-73
2023/01/07 10:58:14;;;;;;;;;3.75;3.75;;;;;;;;5187126;28;10044;-75
2023/01/07 11:00:46;;;;;;;;;9.50;9.50;;;;;;;;5187411;28;10185;-75
2023/01/07 11:03:20;;;;;;;;;7.00;7.00;;;;;;;;5186355;28;8826;-72
2023/01/07 11:05:53;;;;;;;;;5.50;5.50;;;;;;;;5169840;28;11055;-73
2023/01/07 11:08:27;;;;;;;;;9.00;9.00;;;;;;;;5186901;28;10132;-74
2023/01/07 11:10:58;;;;;;;;;8.50;7.00;;;;;;;;5186288;28;10350;-74
2023/01/07 11:13:31;;;;;;;;;12.75;12.75;;;;;;;;5186056;28;10494;-75
2023/01/07 11:16:17;;;;;;;;;13.00;12.50;;;;;;;;5203183;28;10549;-76
2023/01/07 11:18:48;;;;;;;;;3.75;3.75;;;;;;;;5203481;28;10304;-74
2023/01/07 11:21:31;;;;;;;;;9.75;9.25;;;;;;;;5187914;28;10256;-77
2023/01/07 11:24:22;;;;;;;;;5.25;5.25;;;;;;;;5189593;28;8802;-74
2023/01/07 11:27:12;;;;;;;;;12.75;12.50;;;;;;;;5175525;28;10508;-76
2023/01/07 11:29:44;;;;;;;;;7.50;7.00;;;;;;;;5187895;28;11182;-70
2023/01/07 11:32:24;;;;;;;;;12.25;11.75;;;;;;;;5186442;28;10560;-72
2023/01/07 11:43:46;;;;;;;;;13.00;12.25;;;;;;;;5171527;28;10560;-72
2023/01/07 11:46:19;;;;;;;;;1.00;1.00;;;;;;;;5169246;28;10488;-72
2023/01/07 11:48:57;;;;;;;;;6.75;6.75;;;;;;;;5169961;28;10058;-72
2023/01/07 11:55:59;;;;;;;;;6.00;6.00;;;;;;;;5188038;28;10080;-76
2023/01/07 11:58:41;;;;;;;;;10.50;10.50;;;;;;;;5171699;28;10152;-72
2023/01/07 12:09:58;;;;;;;;;4.00;4.00;;;;;;;;5187095;28;10940;-71
2023/01/07 12:12:38;;;;;;;;;5.50;5.50;;;;;;;;5169703;28;10073;-73
2023/01/07 12:23:18;;;;;;;;;3.50;3.50;;;;;;;;5167607;28;10684;-71
2023/01/07 12:26:10;;;;;;;;;8.00;7.50;;;;;;;;5185414;28;10715;-72
2023/01/07 12:28:56;;;;;;;;;9.25;9.25;;;;;;;;5188258;28;10480;-71
2023/01/07 12:40:31;;;;;;;;;12.25;12.25;;;;;;;;5165727;28;10201;-70
2023/01/07 12:43:10;;;;;;;;;3.25;3.25;;;;;;;;5149699;28;10458;-74
2023/01/07 12:45:44;;;;;;;;;12.75;12.75;;;;;;;;5179810;28;10301;-71
2023/01/07 12:53:07;;;;;;;;;4.00;4.00;;;;;;;;5184383;28;10277;-75
2023/01/07 12:55:53;;;;;;;;;1.00;0.50;;;;;;;;5163384;28;10929;-74
2023/01/07 12:58:31;;;;;;;;;8.25;8.25;;;;;;;;5185298;28;10589;-73
2023/01/07 13:01:24;;;;;;;;;0.50;0.50;;;;;;;;5151791;28;10460;-79
2023/01/07 13:03:58;;;;;;;;;1.00;1.00;;;;;;;;5168297;28;10189;-74
2023/01/07 13:06:41;;;;;;;;;6.00;6.00;;;;;;;;5151729;28;10186;-72
2023/01/07 13:09:23;;;;;;;;;13.00;12.25;;;;;;;;5183965;28;10898;-72
2023/01/07 13:15:26;;;;;;;;;8.50;8.00;;;;;;;;5183813;28;10297;-71
2023/01/07 13:18:01;;;;;;;;;11.00;11.00;;;;;;;;5150697;28;10262;-74
2023/01/07 13:20:45;;;;;;;;;15.00;14.25;;;;;;;;5167554;28;10379;-71
2023/01/07 13:27:51;;;;;;;;;6.50;6.50;;;;;;;;5185321;28;10408;-74
2023/01/07 13:30:34;;;;;;;;;14.50;13.50;;;;;;;;5167082;28;10844;-72
2023/01/07 13:33:32;;;;;;;;;6.50;6.50;;;;;;;;5167487;28;10587;-70
2023/01/07 13:36:15;;;;;;;;;14.00;13.75;;;;;;;;5183479;28;11242;-74
2023/01/07 13:39:18;;;;;;;;;23.75;22.25;;;;;;;;5167530;28;10594;-73
2023/01/07 13:42:10;;;;;;;;;3.50;3.50;;;;;;;;5151370;28;10636;-69
2023/01/07 13:44:42;;;;;;;;;4.00;4.00;;;;;;;;5167478;28;10014;-70
2023/01/07 13:51:39;;;;;;;;;2.50;2.50;;;;;;;;5184748;28;9960;-69
2023/01/07 13:54:12;;;;;;;;;0.75;0.75;;;;;;;;5150881;28;10121;-71
2023/01/07 13:57:23;;;;;;;;;3.25;3.25;;;;;;;;5167806;28;10803;-72
2023/01/07 13:59:54;;;;;;;;;6.00;6.00;;;;;;;;5183191;28;10819;-70
2023/01/07 14:02:45;;;;;;;;;9.50;9.50;;;;;;;;5166804;28;10004;-73
2023/01/07 14:05:16;;;;;;;;;4.50;4.50;;;;;;;;5136062;28;10189;-73
2023/01/07 14:07:49;;;;;;;;;7.75;6.00;;;;;;;;5154631;28;10040;-71
2023/01/07 14:10:24;;;;;;;;;12.25;11.50;;;;;;;;5170722;28;8890;-71
2023/01/07 14:13:16;;;;;;;;;6.50;6.00;;;;;;;;5154643;28;10299;-71
2023/01/07 14:16:05;;;;;;;;;10.50;9.50;;;;;;;;5170640;28;10128;-72
2023/01/07 14:18:36;;;;;;;;;3.25;3.00;;;;;;;;5154819;28;10179;-72
2023/01/07 14:21:26;;;;;;;;;7.50;7.50;;;;;;;;5188137;28;10221;-70
2023/01/07 14:24:06;;;;;;;;;10.50;7.50;;;;;;;;5154640;28;8779;-69
2023/01/07 14:26:55;;;;;;;;;3.00;3.00;;;;;;;;5171136;28;10693;-72
2023/01/07 14:29:39;;;;;;;;;11.50;11.50;;;;;;;;5172726;28;9580;-71
2023/01/07 14:32:22;;;;;;;;;3.00;1.00;;;;;;;;5189504;28;10162;-70
2023/01/07 14:35:04;;;;;;;;;4.00;4.00;;;;;;;;5184813;28;9703;-72
2023/01/07 14:37:37;;;;;;;;;14.00;11.75;;;;;;;;5197831;28;9923;-73
2023/01/07 14:40:24;;;;;;;;;2.25;1.00;;;;;;;;5208508;28;9966;-72
2023/01/07 14:42:56;;;;;;;;;2.50;2.50;;;;;;;;5208620;28;9745;-72
2023/01/07 14:45:36;;;;;;;;;5.67;5.67;;;;;;;;5207468;28;9713;-69
2023/01/07 14:48:07;;;;;;;;;3.00;3.00;;;;;;;;5208747;28;9731;-69
2023/01/07 14:50:47;;;;;;;;;3.67;2.33;;;;;;;;5173909;28;9730;-69
2023/01/07 14:53:37;;;;;;;;;4.00;4.00;;;;;;;;5190747;28;11486;-69
2023/01/07 14:56:35;;;;;;;;;4.67;4.67;;;;;;;;5208226;28;10531;-69
2023/01/07 14:59:06;;;;;;;;;3.33;3.33;;;;;;;;5190173;28;9659;-69
2023/01/07 15:01:53;;;;;;;;;4.00;4.00;;;;;;;;5190386;28;9661;-68
2023/01/07 15:04:39;;;;;;;;;0.00;0.00;;;;;;;;5206700;28;8843;-69
2023/01/07 15:07:14;;;;;;;;;4.00;4.00;;;;;;;;5190357;28;9862;-68
2023/01/07 15:15:59;;;;;;;;;0.67;0.67;;;;;;;;5189932;28;9491;-72
2023/01/07 15:16:00;;;;;;;;;6.50;5.50;;;;;;;;5205376;28;9636;-71
2023/01/07 15:18:33;;;;;;;;;1.00;1.00;;;;;;;;5189898;28;9970;-71
2023/01/07 15:21:04;;;;;;;;;1.67;0.33;;;;;;;;5190613;28;10359;-72
2023/01/07 15:23:54;;;;;;;;;3.00;3.00;;;;;;;;5208027;28;9432;-70
2023/01/07 15:26:41;;;;;;;;;6.33;6.33;;;;;;;;5175380;28;9572;-70
2023/01/07 15:29:21;;;;;;;;;5.75;5.75;;;;;;;;5190117;28;9716;-71
2023/01/07 15:32:13;;;;;;;;;7.50;6.00;;;;;;;;5192073;28;9919;-71
2023/01/07 15:34:44;;;;;;;;;8.50;8.00;;;;;;;;5207169;28;9979;-72
2023/01/07 15:37:33;;;;;;;;;7.50;7.50;;;;;;;;5207431;28;9919;-72
2023/01/07 15:40:05;;;;;;;;;5.50;5.50;;;;;;;;5189290;28;9900;-70
2023/01/07 15:42:36;;;;;;;;;4.00;4.00;;;;;;;;5207095;28;9545;-76
2023/01/07 15:45:12;;;;;;;;;4.50;4.50;;;;;;;;5189626;28;9739;-73
2023/01/07 15:48:07;;;;;;;;;6.00;6.00;;;;;;;;5205373;28;11412;-71
2023/01/07 15:50:43;;;;;;;;;3.00;3.00;;;;;;;;5173660;28;9819;-74
2023/01/07 15:53:14;;;;;;;;;7.50;7.00;;;;;;;;5189005;28;9671;-71
2023/01/07 15:55:51;;;;;;;;;1.00;1.00;;;;;;;;5189478;28;9927;-73
2023/01/07 15:58:47;;;;;;;;;6.75;6.75;;;;;;;;5206194;28;9799;-75
2023/01/07 16:01:45;;;;;;;;;4.00;4.00;;;;;;;;5205645;28;9911;-71
2023/01/07 16:04:23;;;;;;;;;9.00;9.00;;;;;;;;5222350;28;9727;-74
2023/01/07 16:06:58;;;;;;;;;10.00;7.00;;;;;;;;5189690;28;10067;-71
2023/01/07 16:09:30;;;;;;;;;3.00;3.00;;;;;;;;5205620;28;10443;-71
2023/01/07 16:12:01;;;;;;;;;7.00;6.67;;;;;;;;5188801;28;9652;-71
2023/01/07 16:14:34;;;;;;;;;3.75;3.00;;;;;;;;5205645;28;8892;-71
2023/01/07 16:17:12;;;;;;;;;6.00;6.00;;;;;;;;5206457;28;8827;-70
2023/01/07 16:19:43;;;;;;;;;7.25;7.25;;;;;;;;5189519;28;10042;-68
2023/01/07 16:22:16;;;;;;;;;9.00;8.00;;;;;;;;5204949;28;10582;-68
2023/01/07 16:24:49;;;;;;;;;3.75;3.75;;;;;;;;5205090;28;9983;-71
2023/01/07 16:31:53;;;;;;;;;6.00;6.00;;;;;;;;5206521;28;9866;-69
2023/01/07 16:34:24;;;;;;;;;2.33;2.33;;;;;;;;5221668;28;9899;-70
2023/01/07 16:36:59;;;;;;;;;3.00;3.00;;;;;;;;5206220;28;9650;-71
2023/01/07 16:39:50;;;;;;;;;1.00;1.00;;;;;;;;5207207;28;9546;-71
2023/01/07 16:42:26;;;;;;;;;1.00;1.00;;;;;;;;5205288;28;9521;-70
2023/01/07 16:44:58;;;;;;;;;6.50;6.50;;;;;;;;5204910;28;9767;-69
2023/01/07 16:47:31;;;;;;;;;3.00;3.00;;;;;;;;5188281;28;9884;-69
2023/01/07 16:50:14;;;;;;;;;1.67;1.67;;;;;;;;5188217;28;9561;-69
2023/01/07 16:52:52;;;;;;;;;0.67;0.67;;;;;;;;5188487;28;10056;-70
2023/01/07 16:55:42;;;;;;;;;0.67;0.67;;;;;;;;5205286;28;9514;-70
2023/01/07 16:58:34;;;;;;;;;3.00;3.00;;;;;;;;5188236;28;9486;-70
2023/01/07 17:01:06;;;;;;;;;3.00;3.00;;;;;;;;5191085;28;10296;-73
2023/01/07 17:03:54;;;;;;;;;1.33;1.33;;;;;;;;5187515;28;9531;-71
2023/01/07 17:06:36;;;;;;;;;9.00;9.00;;;;;;;;5206081;28;9417;-71
2023/01/07 17:09:19;;;;;;;;;4.00;4.00;;;;;;;;5203860;28;9727;-71
2023/01/07 17:11:51;;;;;;;;;3.00;3.00;;;;;;;;5187629;28;9326;-70